ETD123 GVAC-GOBD
Flight info
| Callsign | ETD123 |
|---|---|
| Flight time | N/A |
| Altitude | 33000 |
| Route | IRPOT1A POLMO DCT LUMPO DCT LIGOV LIGOV1A |
| Aircraft | A320/M-SDE3FGHIRWY/LB1 |
Departure
| Time | 2026-04-21 17:22 |
|---|---|
| Airport | Amílcar Cabral International Airport (GVAC) |
Arrival
| Time | N/A |
|---|---|
| Airport | Blaise Diagne International Airport (GOBD) |
| Time | Latitude | Longitude | Altitude | Speed | Heading |
|---|---|---|---|---|---|
| 2026-04-21 16:36 | 16.73433 | -22.94491 | 181 ft | 0 kts | 89° |
| 2026-04-21 17:13 | 16.73433 | -22.94498 | 181 ft | 3 kts | 89° |
| 2026-04-21 17:13 | 16.73432 | -22.94516 | 181 ft | 3 kts | 89° |
| 2026-04-21 17:13 | 16.73432 | -22.94534 | 181 ft | 3 kts | 89° |
| 2026-04-21 17:13 | 16.73432 | -22.94552 | 181 ft | 3 kts | 89° |
| 2026-04-21 17:14 | 16.73431 | -22.94570 | 181 ft | 2 kts | 97° |
| 2026-04-21 17:14 | 16.73439 | -22.94586 | 181 ft | 2 kts | 170° |
| 2026-04-21 17:14 | 16.73441 | -22.94586 | 181 ft | 0 kts | 174° |
| 2026-04-21 17:17 | 16.73436 | -22.94586 | 181 ft | 3 kts | 177° |
| 2026-04-21 17:17 | 16.73418 | -22.94588 | 181 ft | 2 kts | 186° |
| 2026-04-21 17:17 | 16.73411 | -22.94589 | 181 ft | 0 kts | 186° |
| 2026-04-21 17:17 | 16.73392 | -22.94591 | 181 ft | 9 kts | 186° |
| 2026-04-21 17:18 | 16.73276 | -22.94595 | 181 ft | 23 kts | 180° |
| 2026-04-21 17:18 | 16.73127 | -22.94593 | 182 ft | 19 kts | 181° |
| 2026-04-21 17:18 | 16.73045 | -22.94672 | 182 ft | 15 kts | 226° |
| 2026-04-21 17:18 | 16.72954 | -22.94693 | 182 ft | 12 kts | 185° |
| 2026-04-21 17:19 | 16.72876 | -22.94692 | 182 ft | 10 kts | 176° |
| 2026-04-21 17:19 | 16.72859 | -22.94691 | 182 ft | 0 kts | 177° |
| 2026-04-21 17:19 | 16.72849 | -22.94690 | 182 ft | 9 kts | 174° |
| 2026-04-21 17:20 | 16.72727 | -22.94689 | 182 ft | 18 kts | 180° |
| 2026-04-21 17:20 | 16.72607 | -22.94691 | 182 ft | 16 kts | 182° |
| 2026-04-21 17:20 | 16.72503 | -22.94690 | 182 ft | 14 kts | 177° |
| 2026-04-21 17:20 | 16.72419 | -22.94709 | 182 ft | 11 kts | 227° |
| 2026-04-21 17:21 | 16.72404 | -22.94783 | 182 ft | 10 kts | 268° |
| 2026-04-21 17:21 | 16.72386 | -22.94847 | 182 ft | 9 kts | 242° |
| 2026-04-21 17:21 | 16.72405 | -22.94860 | 182 ft | 3 kts | 350° |
| 2026-04-21 17:21 | 16.72528 | -22.94883 | 182 ft | 53 kts | 353° |
| 2026-04-21 17:22 | 16.73187 | -22.94884 | 183 ft | 133 kts | 1° |
| 2026-04-21 17:22 | 16.74315 | -22.94828 | 308 ft | 184 kts | 4° |
| 2026-04-21 17:22 | 16.75613 | -22.94912 | 1149 ft | 178 kts | 358° |
| 2026-04-21 17:22 | 16.76743 | -22.94965 | 2425 ft | 155 kts | 3° |
| 2026-04-21 17:23 | 16.77903 | -22.94840 | 2837 ft | 187 kts | 359° |
| 2026-04-21 17:23 | 16.79228 | -22.94545 | 3467 ft | 187 kts | 17° |
| 2026-04-21 17:23 | 16.80338 | -22.94024 | 4449 ft | 178 kts | 13° |
| 2026-04-21 17:23 | 16.81552 | -22.93232 | 4312 ft | 234 kts | 34° |
| 2026-04-21 17:24 | 16.82721 | -22.92121 | 5347 ft | 227 kts | 41° |
| 2026-04-21 17:24 | 16.84139 | -22.91090 | 5158 ft | 277 kts | 30° |
| 2026-04-21 17:24 | 16.85555 | -22.89611 | 5725 ft | 290 kts | 63° |
| 2026-04-21 17:24 | 16.86025 | -22.87561 | 6592 ft | 300 kts | 92° |
| 2026-04-21 17:25 | 16.85483 | -22.85428 | 6889 ft | 321 kts | 123° |
| 2026-04-21 17:25 | 16.83909 | -22.83690 | 6982 ft | 343 kts | 153° |
| 2026-04-21 17:25 | 16.81642 | -22.82958 | 7487 ft | 337 kts | 182° |
| 2026-04-21 17:25 | 16.79486 | -22.83351 | 7825 ft | 298 kts | 210° |
| 2026-04-21 17:26 | 16.78005 | -22.84656 | 7924 ft | 269 kts | 239° |
| 2026-04-21 17:26 | 16.77271 | -22.86418 | 7944 ft | 264 kts | 258° |
| 2026-04-21 17:26 | 16.77220 | -22.88319 | 7946 ft | 264 kts | 279° |
| 2026-04-21 17:26 | 16.77921 | -22.90094 | 7947 ft | 270 kts | 302° |
| 2026-04-21 17:27 | 16.79304 | -22.91450 | 7944 ft | 280 kts | 325° |
| 2026-04-21 17:27 | 16.81176 | -22.92100 | 7950 ft | 291 kts | 351° |
| 2026-04-21 17:27 | 16.83174 | -22.91834 | 7942 ft | 301 kts | 14° |
| 2026-04-21 17:27 | 16.84949 | -22.90636 | 7945 ft | 310 kts | 45° |
| 2026-04-21 17:28 | 16.85973 | -22.88660 | 8140 ft | 316 kts | 79° |
| 2026-04-21 17:28 | 16.86221 | -22.86377 | 8901 ft | 318 kts | 86° |
| 2026-04-21 17:28 | 16.86426 | -22.84067 | 9639 ft | 322 kts | 86° |
| 2026-04-21 17:28 | 16.86640 | -22.81717 | 10224 ft | 331 kts | 86° |
| 2026-04-21 17:29 | 16.86822 | -22.79239 | 10400 ft | 353 kts | 92° |
| 2026-04-21 17:29 | 16.86568 | -22.76646 | 10735 ft | 364 kts | 105° |
| 2026-04-21 17:29 | 16.85773 | -22.74126 | 11307 ft | 365 kts | 118° |
| 2026-04-21 17:29 | 16.84495 | -22.71843 | 11925 ft | 364 kts | 130° |
| 2026-04-21 17:30 | 16.83026 | -22.69676 | 12571 ft | 368 kts | 130° |
| 2026-04-21 17:30 | 16.81541 | -22.67487 | 13203 ft | 371 kts | 129° |
| 2026-04-21 17:30 | 16.80041 | -22.65271 | 13817 ft | 375 kts | 129° |